Rejestracja

Wszystkie dane podawane są w czasie UTC za wyjątkiem miejsc gdzie jest jednoznacznie podane, że jest inaczej. Dane podawane w serwisie mają charakter informacyjny!!!
Informacje w sprawie dostępu do serwisu pod numerem tel. +48 261-828-138
Informacja dla żołnierzy i pracowników wojska: Prosimy o niezwłoczną zmianę adresu e-mail w profilu użytkownika na pocztę w domenie @ron.mil.pl

Aktualna Pogoda
 
Pogoda w Polsce
6°C Szczecin 7°C Suwałki 4°C Warszawa 5°C Poznan
6°C Opole 5°C Kraków 5°C Rzeszów
Więcej miast w Polsce

Pogoda w Europie
6°C Berlin 5°C Paryz 3°C Bruksela 7°C Oslo
2°C Praga 7°C Zagrzeb
Więcej miast w Europie

Metary wojskowe test
METAR EPBC 190700Z 15005KT CAVOK 08/05 Q1020=
METAR EPCE 190700Z 16010KT 9999 SCT229 05/03 Q1014 RMK 051 084 3/3=
METAR EPDA 190700Z 18012KT 130V210 9999 SCT170 06/01 Q1013 RMK 061 070 3/3=
METAR EPDE 190700Z 10006KT 0500 FG NSC 01/01 Q1022 RMK 009 099 3/3=
METAR EPIR 190700Z 15008KT 7000 NSC 03/03 Q1017 RMK 034 093 4/2=
METAR EPKS 190700Z 15004KT 9999 NSC 04/04 Q1017 RMK 036 100 4/1=
METAR EPLK 190700Z 10007KT 9999 NSC 05/03 Q1019 RMK 051 088 6/2=
METAR EPLY 190700Z 16008KT 9999 NSC 07/05 Q1018 RMK 066 087 6/1=
METAR EPMB 190700Z 18010KT 6000 SCT006 06/06 Q1017 RMK 059 098 3/3=
METAR EPMI 190700Z 18010KT 9999 NSC 04/00 Q1014 RMK 043 075 0/0=
METAR EPMM 190700Z 16006KT 120V180 6000 FEW100 SCT200 06/05 Q1021 RMK 059 096 3/1=
METAR EPNA 190700Z 00000KT CAVOK 04/02 Q1015 RMK 037 092 2/2=
METAR EPOK 190700Z 14010KT 9999 BKN206 06/05 Q1016 RMK 063 090 5/5=
METAR EPPR 190700Z 00000KT 6000 FEW200 04/03 Q1017 RMK 038 094 2/2=
METAR EPPW 190700Z 16006KT 5000 BR NSC 04/04 Q1017 RMK 042 099 5/2=
METAR EPSN 190700Z 17014G24KT 9999 SCT140 05/01 Q1013 RMK 050 074 4/4=
METAR EPTM 190700Z 17006KT 9999 NSC 05/04 Q1020 RMK 052 089 6/3=


 

Prawa autorskie©2007 SSH SZ RP. Wszelkie prawa zastrzeżone.